createdAt,value
2022-10-30T05:41:20.797Z,14.91
2022-10-30T05:43:49.340Z,15.53
2022-10-30T05:46:17.857Z,16.24
2022-10-30T05:48:47.281Z,16.72
2022-10-30T05:51:15.451Z,17.04
2022-10-30T05:53:50.351Z,17.09
2022-10-30T05:56:21.206Z,16.38
2022-10-30T05:58:50.388Z,15.62
2022-10-30T06:01:18.982Z,15.04
2022-10-30T06:03:47.908Z,14.83
2022-10-30T06:06:16.030Z,15.55
2022-10-30T06:08:45.507Z,16.26
2022-10-30T06:11:37.117Z,16.81
2022-10-30T06:14:05.803Z,17.12
2022-10-30T06:16:41.185Z,17.25
2022-10-30T06:19:26.195Z,16.55
2022-10-30T06:21:59.965Z,15.84
2022-10-30T07:18:42.128Z,17.11
2022-10-30T07:21:10.763Z,17.40
2022-10-30T07:23:39.054Z,17.68
2022-10-30T07:26:39.814Z,17.87
2022-10-30T07:29:33.786Z,17.15
2022-10-30T07:32:13.926Z,16.49
2022-10-30T07:34:50.827Z,15.99
2022-10-30T07:37:25.345Z,15.91
2022-10-30T07:40:16.391Z,16.91
2022-10-30T07:43:05.162Z,17.50
2022-10-30T07:45:39.528Z,17.84
2022-10-30T07:48:26.955Z,18.10
2022-10-30T07:51:16.047Z,18.18
2022-10-30T07:53:44.627Z,17.57
2022-10-30T07:56:12.972Z,16.94
2022-10-30T07:59:07.616Z,16.36
2022-10-30T08:01:54.301Z,16.30
2022-10-30T08:04:33.104Z,17.19
2022-10-30T08:07:09.072Z,17.80
2022-10-30T08:09:38.061Z,18.13
2022-10-30T08:12:06.725Z,18.25
2022-10-30T08:14:35.306Z,17.78
2022-10-30T08:17:05.322Z,17.14
2022-10-30T08:19:34.009Z,16.61
2022-10-30T08:22:02.321Z,16.41
2022-10-30T08:24:33.236Z,16.95
2022-10-30T08:27:02.848Z,17.56
2022-10-30T08:29:32.565Z,18.17
2022-10-30T08:32:01.572Z,18.57
2022-10-30T08:34:59.090Z,18.55
2022-10-30T08:37:27.676Z,17.97
2022-10-30T08:39:55.806Z,17.43
2022-10-30T08:42:54.299Z,16.96
2022-10-30T08:45:29.709Z,16.62
2022-10-30T08:48:17.114Z,16.71
2022-10-30T08:50:45.979Z,17.81
2022-10-30T08:53:16.992Z,18.64
2022-10-30T08:55:46.759Z,18.89
2022-10-30T08:58:22.323Z,18.34
2022-10-30T09:00:50.890Z,17.82
2022-10-30T09:03:18.994Z,17.43
2022-10-30T09:06:06.791Z,17.11
2022-10-30T09:08:53.916Z,16.80
2022-10-30T09:11:34.230Z,16.52
2022-10-30T09:14:02.301Z,16.54
2022-10-30T09:16:30.570Z,17.44
2022-10-30T09:19:02.057Z,18.27
2022-10-30T09:21:31.357Z,18.64
2022-10-30T09:23:59.548Z,18.18
2022-10-30T09:26:37.545Z,17.55
2022-10-30T09:29:12.966Z,17.10
2022-10-30T09:32:00.938Z,16.77
2022-10-30T09:34:31.517Z,16.54
2022-10-30T09:37:11.590Z,16.59
2022-10-30T09:39:39.838Z,17.66
2022-10-30T09:42:20.040Z,18.45
2022-10-30T09:45:29.430Z,18.74
2022-10-30T09:48:39.430Z,18.03
2022-10-30T09:51:25.609Z,17.33
2022-10-30T09:54:02.408Z,16.90
2022-10-30T09:56:48.069Z,16.58
2022-10-30T09:59:40.525Z,16.51
2022-10-30T10:02:36.161Z,17.60
2022-10-30T10:05:14.798Z,18.37
2022-10-30T10:08:10.393Z,18.40
2022-10-30T10:11:21.946Z,17.65
2022-10-30T10:14:09.617Z,17.09
2022-10-30T10:16:40.874Z,16.61
2022-10-30T10:19:19.344Z,16.58
2022-10-30T10:21:57.849Z,17.70
2022-10-30T10:24:30.401Z,18.59
2022-10-30T10:27:42.575Z,18.90
2022-10-30T10:30:16.011Z,18.12
2022-10-30T10:33:03.797Z,17.51
2022-10-30T10:35:52.695Z,17.01
2022-10-30T10:38:39.338Z,16.63
2022-10-30T10:41:41.575Z,16.77
2022-10-30T10:44:34.674Z,18.21
2022-10-30T10:47:12.073Z,18.89
2022-10-30T10:50:18.012Z,18.29
2022-10-30T10:53:02.541Z,17.54
2022-10-30T10:55:37.223Z,17.06
2022-10-30T10:58:24.452Z,16.72
2022-10-30T11:00:53.611Z,16.44
2022-10-30T11:03:28.229Z,16.50
2022-10-30T11:06:17.833Z,17.58
2022-10-30T11:08:47.060Z,18.57
2022-10-30T11:11:15.697Z,18.98
2022-10-30T11:13:45.729Z,18.49
2022-10-30T11:16:32.102Z,17.84
2022-10-30T11:19:03.808Z,17.31
2022-10-30T11:21:38.276Z,16.95
2022-10-30T11:24:33.729Z,16.65
2022-10-30T11:27:24.113Z,16.94
2022-10-30T11:30:05.976Z,18.63
2022-10-30T11:32:35.095Z,19.46
2022-10-30T11:35:16.086Z,18.89
2022-10-30T11:37:46.552Z,18.12
2022-10-30T11:40:15.121Z,17.59
2022-10-30T11:43:06.802Z,17.21
2022-10-30T11:45:40.200Z,16.86
2022-10-30T11:48:23.205Z,16.62
2022-10-30T11:50:56.508Z,16.81
2022-10-30T11:53:51.217Z,18.24
2022-10-30T11:56:22.165Z,19.18
2022-10-30T11:58:57.402Z,18.62
2022-10-30T12:01:36.435Z,17.95
2022-10-30T12:04:22.422Z,17.43
2022-10-30T12:07:08.231Z,17.03
2022-10-30T12:09:45.287Z,16.72
2022-10-30T12:12:33.072Z,16.46
2022-10-30T12:15:14.833Z,16.71
2022-10-30T12:17:52.811Z,18.19
2022-10-30T12:20:21.851Z,18.89
2022-10-30T12:22:50.494Z,18.42
2022-10-30T12:25:32.802Z,17.80
2022-10-30T12:28:16.954Z,17.29
2022-10-30T12:30:51.466Z,16.92
2022-10-30T12:33:31.879Z,16.63
2022-10-30T12:36:05.727Z,16.40
2022-10-30T12:38:52.748Z,16.57
2022-10-30T12:41:33.115Z,18.14
2022-10-30T12:44:13.774Z,19.31
2022-10-30T12:46:47.687Z,19.65
2022-10-30T12:49:31.502Z,18.98
2022-10-30T12:52:34.049Z,18.25
2022-10-30T12:55:08.140Z,17.67
2022-10-30T12:57:53.810Z,17.31
2022-10-30T13:00:22.128Z,16.98
2022-10-30T13:03:00.832Z,16.72
2022-10-30T13:05:40.250Z,16.48
2022-10-30T13:08:33.642Z,16.65
2022-10-30T13:11:17.872Z,18.15
2022-10-30T13:13:50.378Z,18.94
2022-10-30T13:16:25.982Z,18.44
2022-10-30T13:18:58.010Z,17.81
2022-10-30T13:21:52.466Z,17.36
2022-10-30T13:24:28.085Z,16.96
2022-10-30T13:27:05.281Z,16.71
2022-10-30T13:30:19.721Z,16.48
2022-10-30T13:33:15.878Z,16.22
2022-10-30T13:36:05.840Z,16.55
2022-10-30T13:39:08.309Z,18.00
2022-10-30T13:41:43.454Z,19.02
2022-10-30T13:44:31.495Z,19.30
2022-10-30T13:47:21.893Z,18.64
2022-10-30T13:50:15.950Z,17.97
2022-10-30T13:52:49.882Z,17.48
2022-10-30T13:55:24.169Z,17.15
2022-10-30T13:58:19.817Z,16.85
2022-10-30T14:01:13.357Z,16.56
2022-10-30T14:04:20.376Z,16.30
2022-10-30T14:07:08.131Z,16.64
2022-10-30T14:09:43.615Z,17.92
2022-10-30T14:12:50.019Z,18.58
2022-10-30T14:15:24.562Z,18.85
2022-10-30T14:18:11.783Z,18.25
2022-10-30T14:20:41.582Z,17.63
2022-10-30T14:23:19.863Z,17.19
2022-10-30T14:26:06.608Z,16.82
2022-10-30T14:28:45.391Z,16.53
2022-10-30T14:31:19.726Z,16.29
2022-10-30T14:33:49.598Z,16.37
2022-10-30T14:36:19.295Z,17.46
2022-10-30T14:39:09.239Z,18.45
2022-10-30T14:41:59.498Z,18.99
2022-10-30T14:44:39.323Z,18.31
2022-10-30T14:47:45.322Z,17.66
2022-10-30T14:50:37.184Z,17.10
2022-10-30T14:53:30.193Z,16.73
2022-10-30T14:56:14.967Z,16.44
2022-10-30T14:58:43.447Z,16.56
2022-10-30T15:01:20.641Z,17.67
2022-10-30T15:04:00.561Z,18.61
2022-10-30T15:06:51.616Z,18.99
2022-10-30T15:09:32.265Z,18.27
2022-10-30T15:12:17.504Z,17.62
2022-10-30T15:14:53.885Z,17.13
2022-10-30T15:17:33.255Z,16.78
2022-10-30T15:20:05.155Z,16.48
2022-10-30T15:22:35.406Z,16.24
2022-10-30T15:25:05.039Z,16.03
2022-10-30T15:27:35.809Z,16.07
2022-10-30T15:30:05.089Z,17.18
2022-10-30T15:32:33.915Z,18.09
2022-10-30T15:35:05.566Z,18.47
2022-10-30T15:37:34.244Z,17.96
2022-10-30T15:40:20.235Z,17.36
2022-10-30T15:42:51.872Z,16.82
2022-10-30T15:45:44.819Z,16.45
2022-10-30T15:48:28.177Z,16.13
2022-10-30T15:51:04.190Z,15.85
2022-10-30T15:53:45.369Z,15.86
2022-10-30T15:56:24.438Z,16.89
2022-10-30T15:59:02.278Z,17.79
2022-10-30T16:01:38.909Z,18.25
2022-10-30T16:04:19.564Z,17.74
2022-10-30T16:06:57.889Z,17.07
2022-10-30T16:09:28.411Z,16.58
2022-10-30T16:12:00.886Z,16.23
2022-10-30T16:14:33.007Z,15.95
2022-10-30T16:17:03.996Z,15.93
2022-10-30T16:19:47.243Z,16.85
2022-10-30T16:22:24.411Z,17.69
2022-10-30T16:24:55.555Z,18.06
2022-10-30T16:27:26.025Z,17.59
2022-10-30T16:30:00.278Z,17.00
2022-10-30T16:32:31.647Z,16.54
2022-10-30T16:35:02.850Z,16.21
2022-10-30T16:37:36.976Z,15.93
2022-10-30T16:40:16.636Z,15.91
2022-10-30T16:42:58.481Z,16.87
2022-10-30T16:45:34.119Z,17.83
2022-10-30T16:48:09.502Z,18.28
2022-10-30T16:50:39.122Z,18.54
2022-10-30T16:53:24.277Z,17.99
2022-10-30T16:55:55.139Z,17.26
2022-10-30T16:58:30.470Z,16.73
2022-10-30T17:01:07.111Z,16.32
2022-10-30T17:03:41.594Z,16.00
2022-10-30T17:06:27.754Z,15.97
2022-10-30T17:08:59.857Z,17.08
2022-10-30T17:11:46.843Z,17.96
2022-10-30T17:14:20.456Z,18.18
2022-10-30T17:17:00.295Z,17.53
2022-10-30T17:19:31.562Z,16.83
2022-10-30T17:22:04.020Z,16.32
2022-10-30T17:24:34.017Z,15.94
2022-10-30T17:27:04.925Z,15.61
2022-10-30T17:29:53.915Z,15.63
2022-10-30T17:32:23.464Z,16.75
2022-10-30T17:35:00.810Z,17.50
2022-10-30T17:37:29.464Z,18.00
2022-10-30T17:40:00.724Z,18.16
2022-10-30T17:42:28.911Z,17.54
2022-10-30T17:44:57.663Z,16.84
2022-10-30T17:47:29.146Z,16.27
2022-10-30T17:49:57.629Z,15.81
2022-10-30T17:52:26.333Z,15.44
2022-10-30T17:54:58.112Z,15.36
2022-10-30T17:57:27.181Z,16.27
2022-10-30T17:59:55.334Z,17.11
2022-10-30T18:02:23.863Z,17.47
2022-10-30T18:04:54.903Z,17.53
2022-10-30T18:07:23.048Z,16.89
2022-10-30T18:09:51.511Z,16.19
2022-10-30T18:12:20.063Z,15.66
2022-10-30T18:14:48.258Z,15.24
2022-10-30T18:17:16.543Z,15.15
2022-10-30T18:19:44.755Z,15.95
2022-10-30T18:22:14.011Z,16.70
2022-10-30T18:24:43.246Z,17.15
2022-10-30T18:27:11.669Z,17.39
2022-10-30T18:29:40.142Z,16.81
2022-10-30T18:32:10.293Z,16.08
2022-10-30T18:34:38.389Z,15.50
2022-10-30T18:37:07.078Z,15.04
2022-10-30T18:42:09.573Z,15.91
2022-10-30T18:44:38.049Z,16.78
2022-10-30T18:47:11.108Z,17.19
2022-10-30T18:49:39.814Z,16.61
2022-10-30T18:52:09.184Z,15.84
2022-10-30T18:54:37.398Z,15.24
2022-10-30T18:57:05.966Z,14.78
2022-10-30T18:59:35.070Z,14.65
2022-10-30T19:02:03.546Z,15.48
2022-10-30T19:04:32.332Z,16.29
2022-10-30T19:07:00.463Z,16.72
2022-10-30T19:09:28.599Z,16.93
2022-10-30T19:11:57.185Z,16.35
2022-10-30T19:14:25.624Z,15.60
2022-10-30T19:16:53.716Z,15.01
2022-10-30T19:19:22.426Z,14.55
2022-10-30T19:21:51.964Z,14.40
2022-10-30T19:24:20.135Z,14.95
2022-10-30T19:26:48.486Z,15.54
2022-10-30T19:29:19.657Z,15.94
2022-10-30T19:31:47.735Z,16.40
2022-10-30T19:34:16.534Z,16.55
2022-10-30T19:36:44.805Z,15.92
2022-10-30T19:39:17.048Z,15.20
2022-10-30T19:41:46.289Z,14.62
2022-10-30T19:44:14.401Z,14.16
